createdAt,value
2019-04-22T00:04:50.882Z,100470.90
2019-04-22T00:15:10.004Z,100462.95
2019-04-22T00:20:14.755Z,100465.52
2019-04-22T00:25:31.020Z,100466.00
2019-04-22T00:30:37.396Z,100466.00
2019-04-22T00:35:35.486Z,100457.93
2019-04-22T00:40:46.174Z,100459.50
2019-04-22T00:51:01.262Z,100461.47
2019-04-22T01:06:19.978Z,100449.41
2019-04-22T01:11:29.776Z,100449.41
2019-04-22T01:16:29.697Z,100442.02
2019-04-22T01:26:37.404Z,100441.94
2019-04-22T01:31:27.542Z,100440.97
2019-04-22T01:36:50.725Z,100440.97
2019-04-22T01:42:10.835Z,100430.73
2019-04-22T01:47:03.431Z,100430.88
2019-04-22T01:52:11.383Z,100419.61
2019-04-22T01:57:14.187Z,100414.59
2019-04-22T02:02:22.188Z,100412.41
2019-04-22T02:07:32.119Z,100412.41
2019-04-22T02:12:36.875Z,100404.59
2019-04-22T02:23:40.893Z,100405.59
2019-04-22T02:28:33.999Z,100401.34
2019-04-22T02:38:53.174Z,100403.53
2019-04-22T02:49:04.112Z,100391.02
2019-04-22T03:09:13.005Z,100370.48
2019-04-22T03:14:15.260Z,100365.73
2019-04-22T03:30:36.775Z,100355.47
2019-04-22T03:45:26.297Z,100354.17
2019-04-22T04:05:50.443Z,100351.77
2019-04-22T04:16:03.169Z,100358.05
2019-04-22T04:21:12.665Z,100358.09
2019-04-22T04:26:00.923Z,100353.41
2019-04-22T04:31:17.713Z,100353.41
2019-04-22T04:41:27.082Z,100348.79
2019-04-22T04:46:43.425Z,100353.58
2019-04-22T04:56:51.483Z,100353.58
2019-04-22T05:01:46.768Z,100354.92
2019-04-22T05:12:09.311Z,100356.77
2019-04-22T05:17:18.678Z,100361.91
2019-04-22T05:22:07.698Z,100361.91
2019-04-22T05:27:16.349Z,100370.33
2019-04-22T05:32:08.893Z,100365.45
2019-04-22T05:37:14.268Z,100360.80
2019-04-22T05:42:18.052Z,100357.74
2019-04-22T05:47:28.846Z,100355.41
2019-04-22T05:52:48.462Z,100357.61
2019-04-22T05:57:40.382Z,100356.40
2019-04-22T06:02:53.497Z,100359.09
2019-04-22T06:07:50.672Z,100354.07
2019-04-22T06:12:55.059Z,100349.31
2019-04-22T06:18:06.519Z,100349.31
2019-04-22T06:23:07.496Z,100357.97
2019-04-22T06:28:22.262Z,100359.81
2019-04-22T06:33:20.658Z,100345.74
2019-04-22T06:38:30.539Z,100346.10
2019-04-22T06:43:33.674Z,100343.91
2019-04-22T06:48:33.092Z,100338.39
2019-04-22T06:58:48.533Z,100340.49
2019-04-22T07:09:14.430Z,100336.41
2019-04-22T07:14:01.798Z,100335.42
2019-04-22T07:19:21.877Z,100330.67
2019-04-22T07:24:27.712Z,100334.27
2019-04-22T07:29:16.463Z,100334.89
2019-04-22T07:34:28.365Z,100334.89
2019-04-22T07:39:29.753Z,100325.55
2019-04-22T07:44:38.633Z,100329.16
2019-04-22T07:49:41.163Z,100325.86
2019-04-22T07:54:46.711Z,100325.86
2019-04-22T07:59:54.187Z,100323.06
2019-04-22T08:10:12.481Z,100314.00
2019-04-22T08:15:05.799Z,100318.69
2019-04-22T08:20:19.020Z,100310.20
2019-04-22T08:25:16.498Z,100310.13
2019-04-22T08:30:28.995Z,100305.21
2019-04-22T08:35:50.233Z,100305.21
2019-04-22T08:40:45.493Z,100306.47
2019-04-22T08:45:46.085Z,100303.67
2019-04-22T08:50:44.575Z,100313.34
2019-04-22T08:56:02.317Z,100318.72
2019-04-22T09:01:06.484Z,100318.72
2019-04-22T09:06:06.412Z,100322.02
2019-04-22T09:11:18.261Z,100322.88
2019-04-22T09:16:19.389Z,100322.88
2019-04-22T09:26:30.351Z,100303.38
2019-04-22T09:31:29.376Z,100301.05
2019-04-22T09:36:41.524Z,100301.05
2019-04-22T09:41:46.201Z,100299.58
2019-04-22T09:46:48.430Z,100290.02
2019-04-22T09:51:52.136Z,100281.59
2019-04-22T09:56:55.036Z,100278.93
2019-04-22T10:02:23.065Z,100278.93
2019-04-22T10:07:13.744Z,100277.23
2019-04-22T10:12:19.098Z,100271.13
2019-04-22T10:17:17.770Z,100259.84
2019-04-22T10:27:32.726Z,100271.58
2019-04-22T10:32:37.959Z,100263.74
2019-04-22T10:37:19.014Z,100257.25
2019-04-22T10:42:23.158Z,100257.25
2019-04-22T10:47:27.953Z,100252.59
2019-04-22T10:52:31.882Z,100252.59
2019-04-22T10:57:36.002Z,100225.30
2019-04-22T11:02:39.846Z,100225.30
2019-04-22T11:07:51.433Z,100226.79
2019-04-22T11:12:49.353Z,100226.79
2019-04-22T11:17:53.606Z,100223.94
2019-04-22T11:22:58.531Z,100223.94
2019-04-22T11:28:02.501Z,100206.11
2019-04-22T11:33:06.784Z,100206.11
2019-04-22T11:38:10.863Z,100184.25
2019-04-22T11:43:14.676Z,100185.47
2019-04-22T11:48:19.541Z,100174.45
2019-04-22T11:53:24.853Z,100186.54
2019-04-22T11:58:28.947Z,100178.47
2019-04-22T12:03:33.835Z,100178.47
2019-04-22T12:08:37.725Z,100166.51
2019-04-22T12:13:42.231Z,100166.51
2019-04-22T12:18:47.246Z,100161.98
2019-04-22T12:23:51.134Z,100167.31
2019-04-22T12:28:55.128Z,100150.68
2019-04-22T12:33:59.297Z,100150.68
2019-04-22T12:39:05.189Z,100142.83
2019-04-22T12:44:09.389Z,100127.63
2019-04-22T12:49:14.266Z,100128.10
2019-04-22T12:54:19.321Z,100114.14
2019-04-22T12:59:23.671Z,100114.14
2019-04-22T13:04:27.988Z,100103.74
2019-04-22T13:09:31.939Z,100103.74
2019-04-22T13:14:36.906Z,100112.25
2019-04-22T13:19:42.386Z,100083.59
2019-04-22T13:24:46.219Z,100083.59
2019-04-22T13:29:51.008Z,100076.87
2019-04-22T13:34:57.909Z,100051.00
2019-04-22T13:40:01.294Z,100051.00
2019-04-22T13:45:07.566Z,100062.45
2019-04-22T13:51:36.259Z,100032.86
2019-04-22T13:55:44.970Z,100032.86
2019-04-22T14:00:26.940Z,100039.01
2019-04-22T14:05:31.209Z,100041.48
2019-04-22T14:10:36.286Z,100039.75
2019-04-22T14:15:40.355Z,100028.61
2019-04-22T14:20:44.954Z,100026.52
2019-04-22T14:25:50.692Z,100026.52
2019-04-22T14:30:54.748Z,100005.33
2019-04-22T14:36:00.425Z,100001.14
2019-04-22T14:41:05.738Z,99997.95
2019-04-22T14:46:38.951Z,99995.97
2019-04-22T14:51:31.910Z,99987.77
2019-04-22T14:56:22.343Z,99987.77
2019-04-22T15:01:26.663Z,99983.27
2019-04-22T15:06:31.759Z,99985.81
2019-04-22T15:11:45.978Z,99992.31
2019-04-22T15:16:55.161Z,99981.92
2019-04-22T15:21:59.009Z,99981.92
2019-04-22T15:27:02.786Z,99985.80
2019-04-22T15:32:07.539Z,99985.80
2019-04-22T15:37:11.934Z,99987.69
2019-04-22T15:42:22.816Z,99987.69
2019-04-22T15:47:22.797Z,99989.24
2019-04-22T15:52:33.408Z,99993.37
2019-04-22T15:57:36.061Z,99990.56
2019-04-22T16:02:39.372Z,99966.79
2019-04-22T16:07:43.985Z,99980.05
2019-04-22T16:12:57.533Z,99980.06
2019-04-22T16:17:54.982Z,99980.06
2019-04-22T16:23:20.244Z,99983.52
2019-04-22T16:28:22.050Z,99968.00
2019-04-22T16:33:25.833Z,99968.00
2019-04-22T16:38:30.909Z,99970.20
2019-04-22T16:43:36.260Z,99962.97
2019-04-22T16:48:40.331Z,99965.86
2019-04-22T16:53:45.247Z,99957.16
2019-04-22T16:58:50.585Z,99957.16
2019-04-22T17:04:02.794Z,99958.70
2019-04-22T17:09:08.980Z,99958.70
2019-04-22T17:14:13.385Z,99963.86
2019-04-22T17:19:19.353Z,99973.48
2019-04-22T17:24:23.664Z,99974.42
2019-04-22T17:29:28.256Z,99980.61
2019-04-22T17:34:33.455Z,99996.59
2019-04-22T17:39:47.767Z,99983.53
2019-04-22T17:45:25.992Z,99983.53
2019-04-22T17:50:39.985Z,99984.67
2019-04-22T17:55:50.609Z,99984.67
2019-04-22T18:00:47.206Z,99979.23
2019-04-22T18:05:43.690Z,99979.23
2019-04-22T18:10:58.063Z,99985.23
2019-04-22T18:16:10.193Z,99975.60
2019-04-22T18:21:08.884Z,99975.60
2019-04-22T18:26:14.313Z,99980.64
2019-04-22T18:31:19.749Z,99988.88
2019-04-22T18:36:27.773Z,99977.20
2019-04-22T18:41:32.123Z,99986.13
2019-04-22T18:46:36.565Z,99986.13
2019-04-22T18:51:51.424Z,99992.37
2019-04-22T18:56:50.507Z,99990.73
2019-04-22T19:01:43.798Z,99990.73
2019-04-22T19:07:15.457Z,99984.58
2019-04-22T19:12:22.967Z,99997.39
2019-04-22T19:17:35.575Z,99983.70
2019-04-22T19:22:33.677Z,99994.20
2019-04-22T19:27:31.314Z,100003.77
2019-04-22T19:32:41.966Z,100003.77
2019-04-22T19:37:36.761Z,99992.50
2019-04-22T19:42:53.613Z,99991.41
2019-04-22T19:47:58.204Z,99983.28
2019-04-22T19:53:01.633Z,99984.27
2019-04-22T19:58:05.490Z,99979.03
2019-04-22T20:03:36.236Z,99979.64
2019-04-22T20:08:34.239Z,99980.64
2019-04-22T20:13:44.253Z,99970.66
2019-04-22T20:18:54.793Z,99970.66
2019-04-22T20:23:45.421Z,99963.78
2019-04-22T20:28:58.891Z,99963.14
2019-04-22T20:34:12.363Z,99943.97
2019-04-22T20:39:06.544Z,99943.97
2019-04-22T20:44:22.689Z,99936.69
2019-04-22T20:49:27.733Z,99924.13
2019-04-22T20:54:32.644Z,99917.05
2019-04-22T20:59:33.206Z,99912.45
2019-04-22T21:04:33.586Z,99902.20
2019-04-22T21:09:43.090Z,99902.20
2019-04-22T21:14:55.185Z,99902.84
2019-04-22T21:20:00.625Z,99903.59
2019-04-22T21:24:57.787Z,99896.22
2019-04-22T21:29:58.196Z,99888.09
2019-04-22T21:35:21.860Z,99889.30
2019-04-22T21:40:20.158Z,99889.30
2019-04-22T21:45:20.814Z,99886.45
2019-04-22T21:50:41.556Z,99891.34
2019-04-22T21:55:41.992Z,99888.30
2019-04-22T22:01:00.818Z,99888.30
2019-04-22T22:05:49.180Z,99878.87
2019-04-22T22:11:03.691Z,99863.58
2019-04-22T22:16:06.683Z,99863.58
2019-04-22T22:21:34.950Z,99862.23
2019-04-22T22:26:13.425Z,99858.44
2019-04-22T22:31:28.591Z,99850.06
2019-04-22T22:36:23.747Z,99848.77
2019-04-22T22:41:16.083Z,99835.31
2019-04-22T22:46:33.134Z,99833.61
2019-04-22T22:52:26.226Z,99824.70
2019-04-22T23:01:54.344Z,99821.50
2019-04-22T23:07:00.480Z,99812.78
2019-04-22T23:17:01.187Z,99810.97
2019-04-22T23:22:05.555Z,99808.13
2019-04-22T23:27:29.327Z,99808.13
2019-04-22T23:32:26.908Z,99800.55
2019-04-22T23:37:35.369Z,99794.86
2019-04-22T23:42:44.624Z,99794.02
2019-04-22T23:47:42.484Z,99794.86
2019-04-22T23:52:58.111Z,99782.11
2019-04-22T23:58:11.941Z,99782.11
